createdAt,value
2022-10-10T06:41:06.459Z,3.88
2022-10-10T06:43:33.823Z,4.10
2022-10-10T06:46:00.617Z,4.22
2022-10-10T06:48:29.944Z,4.68
2022-10-10T06:51:05.109Z,4.38
2022-10-10T06:53:32.697Z,4.47
2022-10-10T06:55:59.807Z,4.43
2022-10-10T06:58:28.590Z,4.53
2022-10-10T07:00:57.664Z,4.82
2022-10-10T07:03:24.948Z,4.65
2022-10-10T07:05:53.519Z,5.78
2022-10-10T07:08:20.935Z,5.05
2022-10-10T07:10:47.539Z,4.68
2022-10-10T07:13:21.186Z,4.63
2022-10-10T07:15:47.748Z,4.63
2022-10-10T07:18:14.285Z,4.13
2022-10-10T07:20:41.603Z,4.38
2022-10-10T07:23:08.294Z,4.32
2022-10-10T07:25:37.261Z,4.10
2022-10-10T07:28:03.747Z,4.53
2022-10-10T07:30:30.243Z,4.13
2022-10-10T07:32:58.983Z,4.10
2022-10-10T07:35:26.435Z,4.88
2022-10-10T07:37:56.285Z,4.00
2022-10-10T07:40:23.354Z,4.35
2022-10-10T07:42:50.250Z,4.80
2022-10-10T07:45:17.572Z,4.45
2022-10-10T07:47:44.131Z,4.57
2022-10-10T07:50:11.512Z,4.25
2022-10-10T07:52:39.065Z,5.18
2022-10-10T07:55:06.136Z,4.57
2022-10-10T07:57:34.997Z,4.20
2022-10-10T08:00:02.997Z,4.20
2022-10-10T08:02:29.478Z,5.47
2022-10-10T08:04:55.925Z,3.92
2022-10-10T08:07:22.386Z,4.65
2022-10-10T08:09:48.898Z,3.92
2022-10-10T08:12:15.580Z,4.57
2022-10-10T08:14:42.107Z,4.80
2022-10-10T08:17:08.674Z,4.13
2022-10-10T08:19:35.224Z,4.28
2022-10-10T08:22:01.872Z,5.32
2022-10-10T08:24:28.467Z,4.30
2022-10-10T08:26:54.934Z,4.85
2022-10-10T08:29:21.440Z,4.07
2022-10-10T08:31:47.905Z,4.47
2022-10-10T08:34:14.460Z,4.63
2022-10-10T08:36:40.929Z,3.97
2022-10-10T08:39:07.427Z,3.92
2022-10-10T08:41:52.597Z,4.07
2022-10-10T08:44:55.845Z,4.45
2022-10-10T08:47:41.690Z,4.00
2022-10-10T08:50:23.687Z,4.30
2022-10-10T08:52:58.723Z,4.20
2022-10-10T08:55:34.135Z,3.95
2022-10-10T08:58:24.138Z,4.25
2022-10-10T09:01:01.401Z,4.00
2022-10-10T09:03:41.579Z,4.55
2022-10-10T09:06:29.718Z,4.03
2022-10-10T09:09:14.084Z,5.07
2022-10-10T09:11:56.838Z,5.05
2022-10-10T09:14:28.820Z,4.50
2022-10-10T09:20:27.973Z,4.30
2022-10-10T09:23:21.263Z,4.97
2022-10-10T09:25:53.331Z,5.05
2022-10-10T09:28:46.960Z,5.05
2022-10-10T09:31:22.999Z,4.40
2022-10-10T09:34:03.812Z,4.60
2022-10-10T09:36:35.316Z,4.75
2022-10-10T09:39:17.342Z,3.85
2022-10-10T09:42:18.911Z,3.92
2022-10-10T09:44:45.438Z,4.22
2022-10-10T09:47:16.680Z,3.92
2022-10-10T09:49:44.350Z,4.40
2022-10-10T09:52:25.725Z,3.90
2022-10-10T09:55:05.140Z,3.42
2022-10-10T09:57:39.387Z,3.63
2022-10-10T10:00:28.478Z,3.85
2022-10-10T10:03:37.995Z,3.83
2022-10-10T10:09:02.822Z,4.50
2022-10-10T10:11:39.697Z,3.90
2022-10-10T10:14:06.626Z,3.60
2022-10-10T10:16:39.213Z,4.05
2022-10-10T10:19:26.233Z,3.70
2022-10-10T10:21:53.928Z,3.42
2022-10-10T10:24:24.344Z,3.20
2022-10-10T10:26:51.706Z,3.15
2022-10-10T10:29:26.867Z,3.25
2022-10-10T10:32:25.482Z,3.05
2022-10-10T10:35:37.030Z,2.60
2022-10-10T10:38:16.058Z,3.60
2022-10-10T10:41:06.572Z,3.55
2022-10-10T10:43:57.933Z,3.42
2022-10-10T10:46:49.301Z,3.03
2022-10-10T10:49:44.500Z,3.15
2022-10-10T10:52:32.028Z,2.95
2022-10-10T10:55:03.869Z,3.10
2022-10-10T10:58:48.591Z,3.17
2022-10-10T11:01:23.054Z,3.70
2022-10-10T11:05:18.178Z,2.78
2022-10-10T11:07:22.442Z,3.03
2022-10-10T11:10:07.652Z,2.63
2022-10-10T11:12:40.077Z,3.05
2022-10-10T11:15:13.323Z,3.33
2022-10-10T11:17:55.230Z,2.45
2022-10-10T11:20:30.962Z,2.50
2022-10-10T11:23:21.825Z,2.63
2022-10-10T11:25:55.310Z,2.25
2022-10-10T11:28:30.797Z,2.50
2022-10-10T11:31:04.548Z,2.50
2022-10-10T11:33:35.251Z,2.30
2022-10-10T11:36:08.936Z,2.47
2022-10-10T11:38:49.150Z,2.47
2022-10-10T11:41:27.832Z,2.53
2022-10-10T11:44:02.609Z,2.00
2022-10-10T11:46:50.937Z,2.42
2022-10-10T11:49:25.111Z,2.30
2022-10-10T11:52:15.158Z,2.80
2022-10-10T11:54:57.358Z,2.85
2022-10-10T12:00:02.612Z,2.00
2022-10-10T12:02:37.801Z,2.33
2022-10-10T12:05:06.169Z,2.20
2022-10-10T12:07:41.670Z,2.05
2022-10-10T12:10:21.994Z,3.10
2022-10-10T12:12:53.113Z,2.30
2022-10-10T12:15:40.150Z,2.65
2022-10-10T12:18:39.422Z,2.70
2022-10-10T12:21:09.036Z,3.03
2022-10-10T12:26:03.226Z,5.40
2022-10-10T12:29:04.944Z,2.90
2022-10-10T12:31:34.541Z,2.60
2022-10-10T12:34:15.118Z,2.78
2022-10-10T12:36:53.858Z,2.47
2022-10-10T12:39:20.539Z,2.55
2022-10-10T12:41:54.411Z,2.22
2022-10-10T12:44:41.481Z,3.60
2022-10-10T12:47:14.003Z,3.75
2022-10-10T12:50:01.259Z,2.63
2022-10-10T12:52:35.899Z,3.10
2022-10-10T12:55:06.581Z,2.45
2022-10-10T12:57:38.234Z,2.83
2022-10-10T13:00:25.588Z,2.83
2022-10-10T13:02:56.084Z,2.78
2022-10-10T13:05:28.992Z,2.78
2022-10-10T13:08:00.478Z,2.83
2022-10-10T13:10:29.855Z,2.45
2022-10-10T13:13:00.085Z,3.53
2022-10-10T13:15:27.339Z,2.88
2022-10-10T13:17:53.973Z,2.75
2022-10-10T13:20:31.770Z,2.78
2022-10-10T13:23:02.154Z,2.58
2022-10-10T13:25:29.380Z,2.60
2022-10-10T13:27:55.969Z,2.80
2022-10-10T13:30:24.721Z,2.70
2022-10-10T13:32:54.688Z,2.72
2022-10-10T13:35:24.978Z,3.30
2022-10-10T13:37:57.794Z,2.08
2022-10-10T13:40:25.487Z,2.65
2022-10-10T13:42:53.086Z,2.70
2022-10-10T13:45:29.243Z,2.58
2022-10-10T13:48:00.164Z,3.35
2022-10-10T13:53:27.226Z,2.40
2022-10-10T13:56:06.283Z,3.45
2022-10-10T13:58:43.614Z,3.35
2022-10-10T14:01:35.509Z,3.25
2022-10-10T14:04:08.039Z,2.92
2022-10-10T14:06:35.322Z,3.20
2022-10-10T14:09:13.504Z,3.00
2022-10-10T14:11:42.296Z,2.85
2022-10-10T14:14:16.381Z,3.30
2022-10-10T14:16:42.922Z,2.75
2022-10-10T14:19:17.952Z,2.80
2022-10-10T14:21:44.714Z,2.50
2022-10-10T14:24:11.199Z,2.72
2022-10-10T14:26:37.731Z,2.90
2022-10-10T14:29:04.235Z,3.00
2022-10-10T14:31:30.694Z,2.28
2022-10-10T14:33:57.210Z,3.00
2022-10-10T14:36:23.786Z,2.95
2022-10-10T14:38:50.266Z,2.88
2022-10-10T14:41:16.740Z,2.42
2022-10-10T14:43:45.905Z,2.65
2022-10-10T14:46:19.554Z,2.78
2022-10-10T14:48:46.835Z,2.65
2022-10-10T14:51:33.363Z,3.30
2022-10-10T14:54:12.430Z,3.33
2022-10-10T14:57:06.937Z,2.72
2022-10-10T14:59:47.126Z,3.13
2022-10-10T15:02:19.530Z,3.20
2022-10-10T15:04:46.089Z,2.80
2022-10-10T15:07:14.450Z,2.65
2022-10-10T15:10:02.974Z,2.70
2022-10-10T15:12:33.766Z,3.10
2022-10-10T15:15:00.320Z,2.92
2022-10-10T15:17:29.582Z,3.17
2022-10-10T15:19:56.244Z,3.28
2022-10-10T15:22:22.784Z,3.80
2022-10-10T15:24:49.223Z,3.40
2022-10-10T15:27:15.803Z,3.80
2022-10-10T15:29:42.268Z,3.97
2022-10-10T15:32:08.820Z,4.18
2022-10-10T15:34:35.367Z,3.58
2022-10-10T15:37:02.173Z,3.17
2022-10-10T15:39:30.662Z,3.67
2022-10-10T15:41:57.646Z,3.58
2022-10-10T15:44:24.123Z,3.50
2022-10-10T15:46:50.838Z,3.78
2022-10-10T15:49:17.368Z,4.88
2022-10-10T15:51:47.146Z,3.42
2022-10-10T15:54:14.495Z,4.00
2022-10-10T15:56:41.835Z,3.72
2022-10-10T15:59:09.455Z,3.63
2022-10-10T16:01:36.335Z,3.40
2022-10-10T16:04:04.349Z,3.55
2022-10-10T16:06:30.894Z,4.30
2022-10-10T16:09:16.476Z,3.38
2022-10-10T16:11:44.010Z,3.92
2022-10-10T16:14:10.537Z,3.40
2022-10-10T16:16:37.000Z,3.70
2022-10-10T16:19:03.643Z,3.33
2022-10-10T16:21:31.502Z,3.72
2022-10-10T16:23:58.328Z,3.50
2022-10-10T16:26:33.072Z,3.42
2022-10-10T16:29:00.970Z,3.20
2022-10-10T16:31:27.850Z,3.65
2022-10-10T16:33:55.880Z,3.63
2022-10-10T16:36:27.538Z,2.92
2022-10-10T16:38:57.313Z,3.88
2022-10-10T16:41:46.345Z,3.65
2022-10-10T16:44:13.148Z,2.58
2022-10-10T16:46:40.650Z,2.90
2022-10-10T16:49:07.209Z,3.15
2022-10-10T16:51:33.837Z,3.72
2022-10-10T16:54:01.858Z,3.47
2022-10-10T16:56:29.811Z,2.95
2022-10-10T16:58:58.427Z,2.85
2022-10-10T17:01:25.090Z,4.07
2022-10-10T17:03:52.083Z,3.47
2022-10-10T17:06:21.846Z,3.65
2022-10-10T17:08:51.552Z,3.35
2022-10-10T17:11:20.517Z,3.25
2022-10-10T17:13:47.899Z,3.70
2022-10-10T17:19:08.013Z,3.50
2022-10-10T17:21:54.921Z,3.55
2022-10-10T17:24:26.483Z,4.13
2022-10-10T17:29:29.978Z,3.15
2022-10-10T17:32:06.548Z,3.60
2022-10-10T17:34:55.607Z,3.33
2022-10-10T17:37:33.432Z,3.83
2022-10-10T17:40:00.258Z,3.50
2022-10-10T17:42:27.182Z,3.50
2022-10-10T17:45:30.544Z,3.53
2022-10-10T17:51:26.861Z,4.22
2022-10-10T17:57:54.568Z,4.40
2022-10-10T18:00:34.426Z,3.95
2022-10-10T18:03:08.883Z,3.65
2022-10-10T18:05:45.024Z,5.07
2022-10-10T18:08:30.508Z,4.67
2022-10-10T18:11:14.389Z,4.47
2022-10-10T18:15:19.327Z,5.72
2022-10-10T18:17:58.923Z,5.20
2022-10-10T18:20:25.970Z,4.63
2022-10-10T18:26:33.154Z,4.13
2022-10-10T18:30:07.744Z,4.32
2022-10-10T18:33:06.301Z,4.25
2022-10-10T18:38:35.844Z,4.60
2022-10-10T18:41:46.554Z,4.75
2022-10-10T18:44:29.905Z,4.88
2022-10-10T18:47:08.783Z,4.45
2022-10-10T18:50:02.422Z,5.57
2022-10-10T18:52:42.797Z,7.15
2022-10-10T18:55:17.619Z,6.47
2022-10-10T18:57:44.760Z,5.95
2022-10-10T19:00:34.176Z,6.55
2022-10-10T19:49:04.820Z,2.80
2022-10-10T19:51:31.481Z,2.80
2022-10-10T19:54:13.543Z,2.50
2022-10-10T19:56:53.379Z,2.10
2022-10-10T19:59:32.034Z,2.28
2022-10-10T20:02:23.299Z,2.20
2022-10-10T20:04:58.253Z,2.60
2022-10-10T20:07:28.088Z,2.10
2022-10-10T20:09:55.200Z,2.47
2022-10-10T20:12:22.108Z,2.20
2022-10-10T20:14:52.110Z,2.25
2022-10-10T20:17:21.634Z,2.40
2022-10-10T20:19:48.266Z,2.20
2022-10-10T20:22:14.798Z,1.77
2022-10-10T20:24:41.282Z,2.10
2022-10-10T20:27:31.018Z,2.08
2022-10-10T20:30:00.811Z,2.20
2022-10-10T20:32:30.553Z,2.90
2022-10-10T20:35:02.838Z,2.10
2022-10-10T20:37:51.263Z,2.30
2022-10-10T20:40:41.383Z,3.00
2022-10-10T20:43:21.257Z,3.05
2022-10-10T20:49:08.404Z,2.03
2022-10-10T20:51:34.925Z,3.35
2022-10-10T20:54:04.378Z,2.30
2022-10-10T20:56:35.658Z,2.92
2022-10-10T20:59:02.283Z,2.33
2022-10-10T21:01:29.965Z,2.80
2022-10-10T21:03:57.032Z,2.33
2022-10-10T21:06:26.633Z,2.67
2022-10-10T21:11:20.821Z,2.28
2022-10-10T21:14:06.531Z,2.90
2022-10-10T21:16:36.826Z,2.63
2022-10-10T21:19:04.902Z,2.28
2022-10-10T21:21:34.491Z,2.97
2022-10-10T21:26:29.282Z,2.88
2022-10-10T21:28:56.912Z,2.55
2022-10-10T21:31:26.367Z,2.60
2022-10-10T21:36:21.514Z,2.53
2022-10-10T21:38:48.137Z,2.72
2022-10-10T21:41:18.998Z,2.95
2022-10-10T21:43:47.607Z,2.97
2022-10-10T21:46:16.358Z,2.85
2022-10-10T21:48:43.224Z,2.40
2022-10-10T21:51:10.055Z,3.30
2022-10-10T21:53:36.905Z,3.47
2022-10-10T21:56:06.406Z,2.85
2022-10-10T21:58:35.844Z,2.80
2022-10-10T22:01:17.738Z,2.67
2022-10-10T22:03:45.503Z,3.17
2022-10-10T22:06:14.866Z,3.10
2022-10-10T22:08:42.006Z,2.90
2022-10-10T22:11:14.301Z,2.53
2022-10-10T22:13:41.102Z,3.15
2022-10-10T22:16:08.859Z,2.80
2022-10-10T22:18:36.525Z,2.72
2022-10-10T22:21:08.301Z,2.75
2022-10-10T22:23:34.807Z,2.30
2022-10-10T22:26:01.529Z,2.88
2022-10-10T22:28:28.391Z,2.90
2022-10-10T22:30:54.888Z,2.65
2022-10-10T22:33:21.453Z,3.00
2022-10-10T22:35:47.877Z,3.35
2022-10-10T22:38:14.314Z,2.60
2022-10-10T22:40:40.729Z,2.65
2022-10-10T22:43:07.198Z,2.40
2022-10-10T22:45:34.184Z,2.90
2022-10-10T22:48:00.844Z,2.72
2022-10-10T22:50:27.281Z,2.88
2022-10-10T22:52:53.750Z,2.65
2022-10-10T22:55:20.310Z,2.80
2022-10-10T22:57:46.761Z,3.20
2022-10-10T23:00:14.072Z,2.88
2022-10-10T23:02:40.531Z,3.20
2022-10-10T23:05:07.648Z,3.97
2022-10-10T23:07:34.294Z,2.75
2022-10-10T23:10:00.752Z,2.97
2022-10-10T23:12:30.061Z,3.60
2022-10-10T23:14:56.559Z,3.55
2022-10-10T23:17:23.187Z,3.72
2022-10-10T23:19:49.667Z,4.13
2022-10-10T23:22:17.763Z,3.40
2022-10-10T23:24:44.219Z,3.20
2022-10-10T23:27:10.702Z,3.58
2022-10-10T23:29:37.175Z,3.10
2022-10-10T23:32:03.654Z,4.32
2022-10-10T23:34:30.086Z,3.15
2022-10-10T23:36:56.562Z,2.75
2022-10-10T23:39:22.989Z,2.85
2022-10-10T23:41:49.465Z,3.00
2022-10-10T23:44:15.890Z,2.65
2022-10-10T23:46:42.398Z,3.00
2022-10-10T23:49:09.749Z,2.72
2022-10-10T23:51:36.337Z,2.83
2022-10-10T23:54:02.912Z,3.30
2022-10-10T23:56:29.393Z,3.63
2022-10-10T23:58:55.848Z,2.92
